Goliah — WDD5908 — position and weather

sailwx.info

Track history (hours):
 
Tides and Currents Weather Stations Pressure Air Temp Water Temp Dewpoint Dewpoint Depression Visibility Wind Speed Wind Dir Waves Ship Positions

Goliah

Owner: Crowley Marine Services, Inc., Seattle, WA. More information available from US FCC via Universal Licensing System and Coast Guard Vessel Documentation Center.

Last reported at 2014-Oct-25 19:33 UTC. Time now 2014-Oct-25 19:44 UTC.
Position N 47°35' W 122°21'.

Length 33 m; draft 4.8 m.

Type: Tug. MMSI: 366898250.

Date/timePositionNaut miles runAvg speedWind from/ knotsBaromVisibWave heightAir tempDewpointWater temp
2014-Oct-25 19:33N 47°35' W 122°21'0 0.6
2014-Oct-25 19:29N 47°35' W 122°21'1 0.7
2014-Oct-25 18:33N 47°35' W 122°21'0 0.0
2014-Oct-25 18:29N 47°35' W 122°21'0 0.0
2014-Oct-25 17:33N 47°35' W 122°21'0 0.1
2014-Oct-25 17:29N 47°35' W 122°21'0 0.0
2014-Oct-25 16:33N 47°35' W 122°21'0 0.1
2014-Oct-25 16:28N 47°35' W 122°21'0 0.0
2014-Oct-25 15:33N 47°35' W 122°21'0 0.1
2014-Oct-25 15:29N 47°35' W 122°21'1 0.9
2014-Oct-25 14:33N 47°36' W 122°22'0147.3
2014-Oct-25 14:33N 47°36' W 122°22'1 0.9
2014-Oct-25 13:33N 47°35' W 122°21'0 0.0
2014-Oct-25 13:33N 47°35' W 122°21'0 0.0
2014-Oct-25 12:33N 47°35' W 122°21'0 0.0
2014-Oct-25 12:28N 47°35' W 122°21'0 0.0
2014-Oct-25 11:33N 47°35' W 122°21'0 0.0
2014-Oct-25 11:33N 47°35' W 122°21'1 0.5
2014-Oct-25 10:33N 47°35' W 122°21'0 0.0
2014-Oct-25 10:33N 47°35' W 122°21'0 0.2
2014-Oct-25 09:34N 47°35' W 122°21'0 1.3
2014-Oct-25 09:33N 47°35' W 122°21'1 0.9
2014-Oct-25 08:33N 47°36' W 122°21'0 0.0
2014-Oct-25 08:33N 47°36' W 122°21'1 0.6
2014-Oct-25 07:33N 47°35' W 122°21'0 0.0
2014-Oct-25 07:33N 47°35' W 122°21'0 0.0
2014-Oct-25 06:33N 47°35' W 122°21'0 0.0
2014-Oct-25 06:33N 47°35' W 122°21'0 0.0
2014-Oct-25 05:57N 47°35' W 122°21'0 0.0
2014-Oct-25 05:33N 47°35' W 122°21'0 0.0
2014-Oct-25 04:33N 47°35' W 122°21'0 0.0
2014-Oct-25 04:32N 47°35' W 122°21'0 0.0
2014-Oct-25 03:33N 47°35' W 122°21'0 0.0
2014-Oct-25 03:32N 47°35' W 122°21'0 0.0
2014-Oct-25 02:33N 47°35' W 122°21'0 0.0
2014-Oct-25 02:32N 47°35' W 122°21'0 0.0
2014-Oct-25 01:33N 47°35' W 122°21'0 1.1
2014-Oct-25 01:32N 47°35' W 122°21'0 0.0
2014-Oct-25 00:33N 47°35' W 122°21'0 0.0
2014-Oct-25 00:32N 47°35' W 122°21'0 0.0
2014-Oct-24 23:33N 47°35' W 122°21'0 0.0
2014-Oct-24 23:32N 47°35' W 122°21'0 0.0
2014-Oct-24 22:33N 47°35' W 122°21'0 0.0
2014-Oct-24 22:32N 47°35' W 122°21'0 0.0
2014-Oct-24 21:33N 47°35' W 122°21'0 0.2
2014-Oct-24 21:31N 47°35' W 122°21'0 0.0
2014-Oct-24 20:33N 47°35' W 122°21'0 0.0
2014-Oct-24 20:10N 47°35' W 122°21'0 0.0
2014-Oct-24 19:33N 47°35' W 122°21'0 0.1
2014-Oct-24 19:30N 47°35' W 122°21'0 0.0
2014-Oct-24 18:28N 47°35' W 122°21'0 0.0
2014-Oct-24 18:14N 47°35' W 122°21'0 0.0
2014-Oct-24 17:33N 47°35' W 122°21'0 0.0
2014-Oct-24 17:29N 47°35' W 122°21'0 0.0
2014-Oct-24 16:33N 47°35' W 122°21'0 0.0
2014-Oct-24 16:28N 47°35' W 122°21'0 0.0
2014-Oct-24 15:33N 47°35' W 122°21'0 0.0
2014-Oct-24 15:29N 47°35' W 122°21'0 0.0
2014-Oct-24 14:33N 47°35' W 122°21'0 0.0
2014-Oct-24 14:28N 47°35' W 122°21'0 0.5
2014-Oct-24 13:33N 47°35' W 122°21'0 0.0
2014-Oct-24 13:33N 47°35' W 122°21'4 3.6
2014-Oct-24 12:34N 47°34' W 122°26'076.0
2014-Oct-24 12:33N 47°34' W 122°26'1211.6
2014-Oct-24 11:33N 47°22' W 122°22'511.8
2014-Oct-24 11:07N 47°18' W 122°27'3 5.3
2014-Oct-24 10:33N 47°16' W 122°24'0 0.5
2014-Oct-24 09:34N 47°16' W 122°23'5 5.0
2014-Oct-24 08:33N 47°21' W 122°26'9 9.3
2014-Oct-24 07:33N 47°30' W 122°26'6 6.4
2014-Oct-24 06:33N 47°36' W 122°21'0 1.1
2014-Oct-24 06:22N 47°35' W 122°21'0 0.0
2014-Oct-24 06:02N 47°35' W 122°21'0 0.0
2014-Oct-24 05:33N 47°35' W 122°21'0 0.0
2014-Oct-24 04:33N 47°35' W 122°21'0 0.0
2014-Oct-24 04:32N 47°35' W 122°21'0 0.0
2014-Oct-24 03:33N 47°35' W 122°21'0 0.0
2014-Oct-24 03:32N 47°35' W 122°21'0 0.0
2014-Oct-24 02:33N 47°35' W 122°21'0 0.3
2014-Oct-24 02:32N 47°35' W 122°21'0 0.0
2014-Oct-24 01:33N 47°35' W 122°21'0 0.0
2014-Oct-24 01:32N 47°35' W 122°21'0 0.0
2014-Oct-24 00:33N 47°35' W 122°21'0 0.0
2014-Oct-24 00:32N 47°35' W 122°21'0 0.0
2014-Oct-23 23:33N 47°35' W 122°21'0 0.0
2014-Oct-23 23:32N 47°35' W 122°21'0 0.0
2014-Oct-23 22:33N 47°35' W 122°21'0 0.0
2014-Oct-23 22:31N 47°35' W 122°21'0 0.0
2014-Oct-23 21:33N 47°35' W 122°21'0 0.0
2014-Oct-23 21:31N 47°35' W 122°21'0 0.0
2014-Oct-23 20:33N 47°35' W 122°21'0 0.0
2014-Oct-23 20:31N 47°35' W 122°21'0 0.0
2014-Oct-23 19:33N 47°35' W 122°21'0 0.2
2014-Oct-23 19:31N 47°35' W 122°21'0 0.0
2014-Oct-23 18:33N 47°35' W 122°21'0 0.0
2014-Oct-23 18:31N 47°35' W 122°21'0 0.0
2014-Oct-23 17:33N 47°35' W 122°21'0 0.0
2014-Oct-23 17:31N 47°35' W 122°21'0 0.0
2014-Oct-23 16:33N 47°35' W 122°21'0 0.0
2014-Oct-23 16:31N 47°35' W 122°21'0 0.0
2014-Oct-23 15:33N 47°35' W 122°21'0 0.0
2014-Oct-23 15:31N 47°35' W 122°21'0 0.0
2014-Oct-23 14:33N 47°35' W 122°21'0 0.0
2014-Oct-23 14:31N 47°35' W 122°21'0 0.0
2014-Oct-23 13:33N 47°35' W 122°21'0 0.0
2014-Oct-23 13:30N 47°35' W 122°21'1 0.6
2014-Oct-23 12:33N 47°35' W 122°21'0 2.3
2014-Oct-23 12:30N 47°35' W 122°21'0 0.5
2014-Oct-23 11:33N 47°35' W 122°21'0 0.0
2014-Oct-23 11:30N 47°35' W 122°21'0 0.0
2014-Oct-23 10:33N 47°35' W 122°21'0 0.1
2014-Oct-23 10:30N 47°35' W 122°21'0 0.0
2014-Oct-23 09:33N 47°35' W 122°21'0 0.0
2014-Oct-23 09:30N 47°35' W 122°21'0 0.0
2014-Oct-23 08:33N 47°35' W 122°21'0 0.1
2014-Oct-23 08:30N 47°35' W 122°21'0 0.0
2014-Oct-23 07:33N 47°35' W 122°21'0 0.0
2014-Oct-23 07:30N 47°35' W 122°21'0 0.0
2014-Oct-23 06:33N 47°35' W 122°21'0 0.1
2014-Oct-23 06:30N 47°35' W 122°21'0 0.0
2014-Oct-23 05:55N 47°35' W 122°21'0 0.0
2014-Oct-23 05:33N 47°35' W 122°21'0 0.0
2014-Oct-23 04:33N 47°35' W 122°21'0 0.0
2014-Oct-23 04:29N 47°35' W 122°21'0 0.0
2014-Oct-23 03:33N 47°35' W 122°21'0 0.1
2014-Oct-23 03:29N 47°35' W 122°21'0 0.0
2014-Oct-23 02:32N 47°35' W 122°21'0 0.0
2014-Oct-23 02:29N 47°35' W 122°21'0 0.0
2014-Oct-23 01:33N 47°35' W 122°21'0 0.1
2014-Oct-23 01:29N 47°35' W 122°21'0 0.1
2014-Oct-23 00:33N 47°35' W 122°21'0 4.0
2014-Oct-23 00:29N 47°36' W 122°21'0 0.3
2014-Oct-22 23:34N 47°35' W 122°21'0 0.1
2014-Oct-22 23:28N 47°35' W 122°21'0 0.2
2014-Oct-22 22:34N 47°35' W 122°21'0 0.0
2014-Oct-22 22:33N 47°35' W 122°21'0 0.0
2014-Oct-22 21:34N 47°35' W 122°21'0 0.0
2014-Oct-22 21:33N 47°35' W 122°21'0 0.0
2014-Oct-22 20:33N 47°35' W 122°21'0 0.0
2014-Oct-22 20:33N 47°35' W 122°21'0 0.0
2014-Oct-22 19:34N 47°35' W 122°21'0 0.0
2014-Oct-22 19:33N 47°35' W 122°21'0 0.0
2014-Oct-22 18:34N 47°35' W 122°21'0 0.0
2014-Oct-22 18:33N 47°35' W 122°21'0 0.0
2014-Oct-22 17:33N 47°35' W 122°21'0 0.0
2014-Oct-22 17:33N 47°35' W 122°21'0 0.0
2014-Oct-22 16:33N 47°35' W 122°21'0 0.0
2014-Oct-22 16:13N 47°35' W 122°21'0 0.0
2014-Oct-22 15:33N 47°35' W 122°21'0 0.7
2014-Oct-22 15:33N 47°35' W 122°21'0 0.0
2014-Oct-22 14:33N 47°35' W 122°21'0 0.0
2014-Oct-22 14:33N 47°35' W 122°21'0 0.4
2014-Oct-22 13:34N 47°36' W 122°21'0 2.0
2014-Oct-22 13:32N 47°36' W 122°21'0 0.5
2014-Oct-22 12:34N 47°35' W 122°21'0 2.1
2014-Oct-22 12:32N 47°35' W 122°21'0 0.3
2014-Oct-22 11:34N 47°36' W 122°21'0 2.9
2014-Oct-22 11:32N 47°35' W 122°21'0 0.3
2014-Oct-22 10:33N 47°35' W 122°21'0 0.0
2014-Oct-22 10:32N 47°35' W 122°21'0 0.0
2014-Oct-22 09:33N 47°35' W 122°21'0 0.0
2014-Oct-22 09:32N 47°35' W 122°21'0 0.0
2014-Oct-22 08:33N 47°35' W 122°21'0 0.0
2014-Oct-22 08:32N 47°35' W 122°21'0 0.0
2014-Oct-22 07:33N 47°35' W 122°21'0 0.3
2014-Oct-22 07:32N 47°35' W 122°21'0 0.0
2014-Oct-22 06:33N 47°35' W 122°21'0 0.0
2014-Oct-22 06:32N 47°35' W 122°21'0 0.0
2014-Oct-22 05:57N 47°35' W 122°21'0 0.0
2014-Oct-22 05:33N 47°35' W 122°21'7 6.8
2014-Oct-22 04:32N 47°41' W 122°26'0 8.3
2014-Oct-22 04:31N 47°42' W 122°26'8 7.8
2014-Oct-22 03:33N 47°49' W 122°24'0 8.3
2014-Oct-22 03:31N 47°49' W 122°24'9 9.0
2014-Oct-22 02:33N 47°57' W 122°19'4 4.0
2014-Oct-22 01:34N 47°59' W 122°13'9 8.6
2014-Oct-22 00:33N 47°52' W 122°22'7 9.9
2014-Oct-21 23:53N 47°46' W 122°25'410.9
2014-Oct-21 23:33N 47°42' W 122°26'011.4
2014-Oct-21 23:33N 47°42' W 122°26'8 7.9
2014-Oct-21 22:33N 47°35' W 122°21'0 0.0
2014-Oct-21 22:32N 47°35' W 122°21'3 3.3
2014-Oct-21 21:33N 47°34' W 122°26'011.0
2014-Oct-21 21:31N 47°34' W 122°26'1010.4
2014-Oct-21 20:33N 47°24' W 122°22'7 8.6
2014-Oct-21 19:46N 47°19' W 122°27'1 5.3
2014-Oct-21 19:33N 47°18' W 122°26'0 0.0
2014-Oct-21 18:33N 47°18' W 122°26'0 0.0
2014-Oct-21 17:32N 47°18' W 122°26'0 0.0
2014-Oct-21 16:33N 47°18' W 122°26'0 0.0
2014-Oct-21 15:33N 47°18' W 122°26'0 0.0
2014-Oct-21 14:33N 47°18' W 122°26'0 0.0
2014-Oct-21 13:33N 47°18' W 122°26'0 0.0
2014-Oct-21 12:33N 47°18' W 122°26'0 0.0
2014-Oct-21 11:31N 47°18' W 122°26'0 0.0
2014-Oct-21 10:33N 47°18' W 122°26'0 0.0
2014-Oct-21 09:33N 47°18' W 122°26'0 0.0
2014-Oct-21 08:31N 47°18' W 122°26'0 0.0
2014-Oct-21 07:33N 47°18' W 122°26'0 0.0
2014-Oct-21 06:33N 47°18' W 122°26'0 0.0
2014-Oct-21 05:33N 47°18' W 122°26'0 0.0
2014-Oct-21 04:28N 47°18' W 122°26'0 0.0
2014-Oct-21 03:31N 47°18' W 122°26'1 1.2
2014-Oct-21 02:33N 47°17' W 122°25'1 1.2
2014-Oct-21 01:33N 47°16' W 122°24'0 0.1
2014-Oct-21 00:33N 47°16' W 122°23'0 0.2
2014-Oct-20 23:33N 47°16' W 122°23'3 2.7
2014-Oct-20 22:33N 47°18' W 122°26'1 0.8
2014-Oct-20 21:33N 47°18' W 122°27'8 8.6
2014-Oct-20 20:39N 47°25' W 122°23'1 9.8
2014-Oct-20 20:33N 47°26' W 122°23'7 9.7
2014-Oct-20 19:49N 47°34' W 122°25'2 8.6
2014-Oct-20 19:33N 47°36' W 122°24'1 9.4
2014-Oct-20 19:29N 47°36' W 122°23'2 1.8
2014-Oct-20 18:33N 47°35' W 122°21'0 0.0
2014-Oct-20 18:29N 47°35' W 122°21'0 0.0
2014-Oct-20 17:33N 47°35' W 122°21'0 0.3
2014-Oct-20 16:33N 47°36' W 122°21'1 0.5
2014-Oct-20 15:33N 47°35' W 122°21'3 2.7
2014-Oct-20 14:33N 47°36' W 122°25'9 8.6
2014-Oct-20 13:33N 47°27' W 122°23'8 8.1
2014-Oct-20 12:33N 47°19' W 122°26'4 4.2
2014-Oct-20 11:30N 47°15' W 122°23'3 2.7
2014-Oct-20 10:33N 47°17' W 122°26'4 3.9
2014-Oct-20 09:33N 47°21' W 122°26'8 8.0
2014-Oct-20 08:33N 47°29' W 122°24'7 6.5
2014-Oct-20 07:29N 47°36' W 122°21'0 0.3
2014-Oct-20 06:43N 47°35' W 122°21'0 0.0
2014-Oct-20 06:31N 47°35' W 122°21'0 0.1
2014-Oct-20 06:28N 47°35' W 122°21'0 0.0
2014-Oct-20 05:58N 47°35' W 122°21'0 0.0
2014-Oct-20 05:33N 47°35' W 122°21'0 0.0
2014-Oct-20 04:33N 47°35' W 122°21'0 0.0
2014-Oct-20 04:33N 47°35' W 122°21'0 0.0
2014-Oct-20 03:33N 47°35' W 122°21'0 0.0
2014-Oct-20 03:33N 47°35' W 122°21'0 0.0
2014-Oct-20 02:33N 47°35' W 122°21'0 0.0
2014-Oct-20 02:33N 47°35' W 122°21'0 0.0
2014-Oct-20 01:33N 47°35' W 122°21'0 0.0
2014-Oct-20 01:33N 47°35' W 122°21'0 0.0
2014-Oct-20 00:33N 47°35' W 122°21'0 0.9
2014-Oct-20 00:33N 47°35' W 122°21'0 0.0
2014-Oct-19 23:33N 47°35' W 122°21'0 0.0
2014-Oct-19 23:33N 47°35' W 122°21'0 0.4
2014-Oct-19 22:33N 47°35' W 122°21'0 0.0
2014-Oct-19 22:33N 47°35' W 122°21'2 1.8
2014-Oct-19 21:33N 47°37' W 122°21'0 0.3
2014-Oct-19 21:32N 47°37' W 122°21'1 1.4
2014-Oct-19 20:33N 47°35' W 122°21'0 0.4
2014-Oct-19 20:33N 47°35' W 122°21'0 0.0
2014-Oct-19 19:33N 47°35' W 122°21'0 0.0
2014-Oct-19 19:30N 47°35' W 122°21'0 0.0
2014-Oct-19 18:33N 47°35' W 122°21'0 0.0
2014-Oct-19 18:29N 47°35' W 122°21'0 0.0
2014-Oct-19 17:27N 47°35' W 122°21'0 0.0
2014-Oct-19 17:18N 47°35' W 122°21'0 0.0
2014-Oct-19 16:32N 47°35' W 122°21'0 0.0
2014-Oct-19 16:31N 47°35' W 122°21'0 0.0
2014-Oct-19 15:33N 47°35' W 122°21'0 0.2
2014-Oct-19 15:31N 47°35' W 122°21'0 0.0
2014-Oct-19 14:33N 47°35' W 122°21'0 0.0
2014-Oct-19 14:31N 47°35' W 122°21'0 0.2
2014-Oct-19 13:33N 47°35' W 122°21'0 0.0
2014-Oct-19 13:31N 47°35' W 122°21'0 0.1
2014-Oct-19 12:33N 47°35' W 122°21'0 1.2
2014-Oct-19 12:31N 47°36' W 122°21'1 1.1
2014-Oct-19 11:33N 47°36' W 122°22'0 0.2
2014-Oct-19 11:31N 47°36' W 122°22'1 1.0
2014-Oct-19 10:33N 47°35' W 122°21'0 0.1
2014-Oct-19 10:31N 47°35' W 122°21'1 0.8
2014-Oct-19 09:33N 47°35' W 122°21'0 0.1
2014-Oct-19 09:31N 47°35' W 122°21'0 0.2
2014-Oct-19 08:33N 47°35' W 122°21'0 0.1
2014-Oct-19 08:31N 47°35' W 122°21'0 0.0
2014-Oct-19 07:33N 47°35' W 122°21'0 0.0
2014-Oct-19 07:31N 47°35' W 122°21'0 0.0
2014-Oct-19 06:33N 47°35' W 122°21'0 0.0
2014-Oct-19 06:30N 47°35' W 122°21'0 0.0
2014-Oct-19 06:00N 47°35' W 122°21'0 0.0
2014-Oct-19 05:33N 47°35' W 122°21'0 0.0
2014-Oct-19 04:33N 47°35' W 122°21'0 0.0
2014-Oct-19 04:25N 47°35' W 122°21'0 0.0
2014-Oct-19 03:33N 47°35' W 122°21'0 0.1
2014-Oct-19 03:30N 47°35' W 122°21'0 0.0
2014-Oct-19 02:33N 47°35' W 122°21'0 0.0
2014-Oct-19 02:24N 47°35' W 122°21'0 0.0
2014-Oct-19 01:33N 47°35' W 122°21'0 0.0
2014-Oct-19 01:30N 47°35' W 122°21'0 0.0
2014-Oct-19 00:33N 47°35' W 122°21'0 0.0
2014-Oct-19 00:24N 47°35' W 122°21'0 0.0
2014-Oct-18 23:33N 47°35' W 122°21'0 0.0
2014-Oct-18 23:30N 47°35' W 122°21'1 1.0
2014-Oct-18 22:33N 47°36' W 122°21'0 0.9
2014-Oct-18 22:30N 47°36' W 122°21'0 0.5
2014-Oct-18 21:33N 47°35' W 122°21'0 0.0
2014-Oct-18 21:29N 47°35' W 122°21'0 0.0
2014-Oct-18 20:33N 47°35' W 122°21'0 0.1
2014-Oct-18 20:29N 47°35' W 122°21'0 0.0
2014-Oct-18 19:33N 47°35' W 122°21'0 0.0
2014-Oct-18 19:29N 47°35' W 122°21'0 0.0
2014-Oct-18 18:33N 47°35' W 122°21'0 0.1
2014-Oct-18 18:28N 47°35' W 122°21'0 0.0
2014-Oct-18 17:33N 47°35' W 122°21'0 0.1
2014-Oct-18 17:28N 47°35' W 122°21'0 0.4
2014-Oct-18 16:33N 47°36' W 122°21'0 1.8
2014-Oct-18 16:28N 47°36' W 122°21'1 0.9
2014-Oct-18 15:33N 47°35' W 122°21'0 0.5
2014-Oct-18 15:29N 47°35' W 122°21'1 0.6
2014-Oct-18 14:33N 47°35' W 122°21'0 0.0
2014-Oct-18 14:29N 47°35' W 122°21'0 0.0
2014-Oct-18 13:33N 47°35' W 122°21'0 0.0
2014-Oct-18 13:33N 47°35' W 122°21'0 0.0
2014-Oct-18 12:33N 47°35' W 122°21'0 0.0
2014-Oct-18 12:33N 47°35' W 122°21'0 0.0
2014-Oct-18 11:33N 47°35' W 122°21'0 0.0
2014-Oct-18 11:33N 47°35' W 122°21'0 0.0
2014-Oct-18 10:33N 47°35' W 122°21'0 0.0
2014-Oct-18 10:23N 47°35' W 122°21'0 0.0
2014-Oct-18 09:33N 47°35' W 122°21'0 0.0
2014-Oct-18 09:33N 47°35' W 122°21'0 0.0
2014-Oct-18 08:33N 47°35' W 122°21'0 0.0
2014-Oct-18 08:32N 47°35' W 122°21'0 0.0
2014-Oct-18 07:33N 47°35' W 122°21'0 0.3
2014-Oct-18 07:32N 47°35' W 122°21'0 0.3
2014-Oct-18 06:33N 47°35' W 122°21'0 2.7
2014-Oct-18 06:31N 47°35' W 122°21'1 2.2
2014-Oct-18 05:57N 47°36' W 122°22'1 1.6
2014-Oct-18 05:33N 47°36' W 122°21'0 0.4
2014-Oct-18 04:33N 47°35' W 122°21'0 0.0
2014-Oct-18 04:32N 47°35' W 122°21'0 0.0
2014-Oct-18 03:33N 47°35' W 122°21'0 0.0
2014-Oct-18 03:32N 47°35' W 122°21'0 0.0
2014-Oct-18 02:33N 47°35' W 122°21'0 0.3
2014-Oct-18 02:32N 47°35' W 122°21'0 0.0
2014-Oct-18 01:33N 47°35' W 122°21'0 0.0
2014-Oct-18 01:32N 47°35' W 122°21'0 0.0
2014-Oct-18 00:33N 47°35' W 122°21'0 0.0
2014-Oct-18 00:32N 47°35' W 122°21'0 0.0
2014-Oct-17 23:33N 47°35' W 122°21'0 0.0
2014-Oct-17 23:32N 47°35' W 122°21'0 0.0
2014-Oct-17 22:33N 47°35' W 122°21'0 0.0
2014-Oct-17 22:32N 47°35' W 122°21'0 0.0
2014-Oct-17 21:33N 47°35' W 122°21'0 0.2
2014-Oct-17 21:31N 47°35' W 122°21'0 0.0
2014-Oct-17 20:33N 47°35' W 122°21'0 0.0
2014-Oct-17 20:31N 47°35' W 122°21'0 0.0
2014-Oct-17 19:33N 47°35' W 122°21'0 0.1
2014-Oct-17 19:31N 47°35' W 122°21'0 0.0
2014-Oct-17 18:33N 47°35' W 122°21'0 0.1
2014-Oct-17 18:31N 47°35' W 122°21'5 5.6
2014-Oct-17 17:33N 47°31' W 122°25'0 8.2
2014-Oct-17 17:31N 47°30' W 122°25'8 8.7
2014-Oct-17 16:33N 47°22' W 122°21'1 8.7
2014-Oct-17 16:25N 47°22' W 122°23'5 6.1
2014-Oct-17 15:33N 47°16' W 122°24'1 0.5
2014-Oct-17 14:34N 47°16' W 122°24'0 0.3
2014-Oct-17 13:33N 47°16' W 122°23'1 1.3
2014-Oct-17 12:33N 47°17' W 122°25'1 1.5
2014-Oct-17 11:33N 47°16' W 122°23'0 0.2
2014-Oct-17 10:33N 47°16' W 122°23'3 3.2
2014-Oct-17 09:33N 47°18' W 122°27'1110.7
2014-Oct-17 08:33N 47°28' W 122°24'7 6.0
2014-Oct-17 07:20N 47°35' W 122°21'0 0.0
2014-Oct-17 07:02N 47°35' W 122°21'0 0.0
2014-Oct-17 06:33N 47°35' W 122°21'0 0.4
2014-Oct-17 06:32N 47°35' W 122°21'0 0.0
2014-Oct-17 05:32N 47°35' W 122°21'0 0.0
2014-Oct-17 04:33N 47°35' W 122°21'0 0.0
2014-Oct-17 04:29N 47°35' W 122°21'0 0.0
2014-Oct-17 03:33N 47°35' W 122°21'0 0.1
2014-Oct-17 03:29N 47°35' W 122°21'0 0.0
2014-Oct-17 02:33N 47°35' W 122°21'0 0.0
2014-Oct-17 02:29N 47°35' W 122°21'0 0.0
2014-Oct-17 01:33N 47°35' W 122°21'0 0.0
2014-Oct-17 01:29N 47°35' W 122°21'0 0.0
2014-Oct-17 00:33N 47°35' W 122°21'0 0.1
2014-Oct-17 00:29N 47°35' W 122°21'0 0.0
2014-Oct-16 23:33N 47°35' W 122°21'0 0.0
2014-Oct-16 23:29N 47°35' W 122°21'0 0.0
2014-Oct-16 22:33N 47°35' W 122°21'0 0.1
2014-Oct-16 22:28N 47°35' W 122°21'0 0.0
2014-Oct-16 21:33N 47°35' W 122°21'0 0.0
2014-Oct-16 21:33N 47°35' W 122°21'0 0.0
2014-Oct-16 20:33N 47°35' W 122°21'0 0.0
2014-Oct-16 20:33N 47°35' W 122°21'0 0.0
2014-Oct-16 19:33N 47°35' W 122°21'0 0.0
2014-Oct-16 19:33N 47°35' W 122°21'0 0.0
2014-Oct-16 18:33N 47°35' W 122°21'0 0.0
2014-Oct-16 18:33N 47°35' W 122°21'0 0.0
2014-Oct-16 17:33N 47°35' W 122°21'0 0.0
2014-Oct-16 17:33N 47°35' W 122°21'0 0.0
2014-Oct-16 16:33N 47°35' W 122°21'0 0.0
2014-Oct-16 16:33N 47°35' W 122°21'0 0.0
2014-Oct-16 15:33N 47°35' W 122°21'0 0.6
2014-Oct-16 15:33N 47°35' W 122°21'0 0.0
2014-Oct-16 14:33N 47°35' W 122°21'0 0.0
2014-Oct-16 14:33N 47°35' W 122°21'0 0.0
2014-Oct-16 13:33N 47°35' W 122°21'0 0.0
2014-Oct-16 13:33N 47°35' W 122°21'0 0.0
2014-Oct-16 12:33N 47°35' W 122°21'0 0.0
2014-Oct-16 12:33N 47°35' W 122°21'1 0.6
2014-Oct-16 11:33N 47°35' W 122°21'0 0.1
2014-Oct-16 11:28N 47°35' W 122°21'0 0.0
2014-Oct-16 10:33N 47°35' W 122°21'0 0.0
2014-Oct-16 10:13N 47°35' W 122°21'0 0.0
2014-Oct-16 09:33N 47°35' W 122°21'0 0.0
2014-Oct-16 09:32N 47°35' W 122°21'0 0.0
2014-Oct-16 08:32N 47°35' W 122°21'0 0.0
2014-Oct-16 08:32N 47°35' W 122°21'0 0.0
2014-Oct-16 07:33N 47°35' W 122°21'0 0.3
2014-Oct-16 07:32N 47°35' W 122°21'0 0.4
2014-Oct-16 06:33N 47°35' W 122°21'0 0.0
2014-Oct-16 06:32N 47°35' W 122°21'2 2.6
2014-Oct-16 05:42N 47°37' W 122°22'0 3.0
2014-Oct-16 05:33N 47°37' W 122°22'2 1.5
2014-Oct-16 04:33N 47°35' W 122°21'0 0.3
2014-Oct-16 04:32N 47°35' W 122°21'0 0.0
2014-Oct-16 03:33N 47°35' W 122°21'0 0.0
2014-Oct-16 03:32N 47°35' W 122°21'0 0.0
2014-Oct-16 02:33N 47°35' W 122°21'0 0.0
2014-Oct-16 02:32N 47°35' W 122°21'0 0.0
2014-Oct-16 01:33N 47°35' W 122°21'0 0.0
2014-Oct-16 01:31N 47°35' W 122°21'0 0.0
2014-Oct-16 00:33N 47°35' W 122°21'0 0.0
2014-Oct-16 00:26N 47°35' W 122°21'1 0.7
2014-Oct-15 23:33N 47°35' W 122°21'0 0.2
2014-Oct-15 23:31N 47°35' W 122°21'1 0.6
2014-Oct-15 22:33N 47°35' W 122°21'0 0.0
2014-Oct-15 22:31N 47°35' W 122°21'0 0.0
2014-Oct-15 21:33N 47°35' W 122°21'0 0.2
2014-Oct-15 21:31N 47°35' W 122°21'0 0.0
2014-Oct-15 20:33N 47°35' W 122°21'0 0.0
2014-Oct-15 20:31N 47°35' W 122°21'  
Track history (hours):
 
Tides and Currents Weather Stations Pressure Air Temp Water Temp Dewpoint Dewpoint Depression Visibility Wind Speed Wind Dir Waves Ship Positions

Goliah

Owner: Crowley Marine Services, Inc., Seattle, WA. More information available from US FCC via Universal Licensing System and Coast Guard Vessel Documentation Center.

Last reported at 2014-Oct-25 19:33 UTC. Time now 2014-Oct-25 19:44 UTC.
Position N 47°35' W 122°21'.

Length 33 m; draft 4.8 m.

Type: Tug. MMSI: 366898250.

Date/timePositionNaut miles runAvg speedWind from/ knotsBaromVisibWave heightAir tempDewpointWater temp
2014-Oct-25 19:33N 47°35' W 122°21'0 0.6
2014-Oct-25 19:29N 47°35' W 122°21'1 0.7
2014-Oct-25 18:33N 47°35' W 122°21'0 0.0
2014-Oct-25 18:29N 47°35' W 122°21'0 0.0
2014-Oct-25 17:33N 47°35' W 122°21'0 0.1
2014-Oct-25 17:29N 47°35' W 122°21'0 0.0
2014-Oct-25 16:33N 47°35' W 122°21'0 0.1
2014-Oct-25 16:28N 47°35' W 122°21'0 0.0
2014-Oct-25 15:33N 47°35' W 122°21'0 0.1
2014-Oct-25 15:29N 47°35' W 122°21'1 0.9
2014-Oct-25 14:33N 47°36' W 122°22'0147.3
2014-Oct-25 14:33N 47°36' W 122°22'1 0.9
2014-Oct-25 13:33N 47°35' W 122°21'0 0.0
2014-Oct-25 13:33N 47°35' W 122°21'0 0.0
2014-Oct-25 12:33N 47°35' W 122°21'0 0.0
2014-Oct-25 12:28N 47°35' W 122°21'0 0.0
2014-Oct-25 11:33N 47°35' W 122°21'0 0.0
2014-Oct-25 11:33N 47°35' W 122°21'1 0.5
2014-Oct-25 10:33N 47°35' W 122°21'0 0.0
2014-Oct-25 10:33N 47°35' W 122°21'0 0.2
2014-Oct-25 09:34N 47°35' W 122°21'0 1.3
2014-Oct-25 09:33N 47°35' W 122°21'1 0.9
2014-Oct-25 08:33N 47°36' W 122°21'0 0.0
2014-Oct-25 08:33N 47°36' W 122°21'1 0.6
2014-Oct-25 07:33N 47°35' W 122°21'0 0.0
2014-Oct-25 07:33N 47°35' W 122°21'0 0.0
2014-Oct-25 06:33N 47°35' W 122°21'0 0.0
2014-Oct-25 06:33N 47°35' W 122°21'0 0.0
2014-Oct-25 05:57N 47°35' W 122°21'0 0.0
2014-Oct-25 05:33N 47°35' W 122°21'0 0.0
2014-Oct-25 04:33N 47°35' W 122°21'0 0.0
2014-Oct-25 04:32N 47°35' W 122°21'0 0.0
2014-Oct-25 03:33N 47°35' W 122°21'0 0.0
2014-Oct-25 03:32N 47°35' W 122°21'0 0.0
2014-Oct-25 02:33N 47°35' W 122°21'0 0.0
2014-Oct-25 02:32N 47°35' W 122°21'0 0.0
2014-Oct-25 01:33N 47°35' W 122°21'0 1.1
2014-Oct-25 01:32N 47°35' W 122°21'0 0.0
2014-Oct-25 00:33N 47°35' W 122°21'0 0.0
2014-Oct-25 00:32N 47°35' W 122°21'0 0.0
2014-Oct-24 23:33N 47°35' W 122°21'0 0.0
2014-Oct-24 23:32N 47°35' W 122°21'0 0.0
2014-Oct-24 22:33N 47°35' W 122°21'0 0.0
2014-Oct-24 22:32N 47°35' W 122°21'0 0.0
2014-Oct-24 21:33N 47°35' W 122°21'0 0.2
2014-Oct-24 21:31N 47°35' W 122°21'0 0.0
2014-Oct-24 20:33N 47°35' W 122°21'0 0.0
2014-Oct-24 20:10N 47°35' W 122°21'0 0.0
2014-Oct-24 19:33N 47°35' W 122°21'0 0.1
2014-Oct-24 19:30N 47°35' W 122°21'0 0.0
2014-Oct-24 18:28N 47°35' W 122°21'0 0.0
2014-Oct-24 18:14N 47°35' W 122°21'0 0.0
2014-Oct-24 17:33N 47°35' W 122°21'0 0.0
2014-Oct-24 17:29N 47°35' W 122°21'0 0.0
2014-Oct-24 16:33N 47°35' W 122°21'0 0.0
2014-Oct-24 16:28N 47°35' W 122°21'0 0.0
2014-Oct-24 15:33N 47°35' W 122°21'0 0.0
2014-Oct-24 15:29N 47°35' W 122°21'0 0.0
2014-Oct-24 14:33N 47°35' W 122°21'0 0.0
2014-Oct-24 14:28N 47°35' W 122°21'0 0.5
2014-Oct-24 13:33N 47°35' W 122°21'0 0.0
2014-Oct-24 13:33N 47°35' W 122°21'4 3.6
2014-Oct-24 12:34N 47°34' W 122°26'076.0
2014-Oct-24 12:33N 47°34' W 122°26'1211.6
2014-Oct-24 11:33N 47°22' W 122°22'511.8
2014-Oct-24 11:07N 47°18' W 122°27'3 5.3
2014-Oct-24 10:33N 47°16' W 122°24'0 0.5
2014-Oct-24 09:34N 47°16' W 122°23'5 5.0
2014-Oct-24 08:33N 47°21' W 122°26'9 9.3
2014-Oct-24 07:33N 47°30' W 122°26'6 6.4
2014-Oct-24 06:33N 47°36' W 122°21'0 1.1
2014-Oct-24 06:22N 47°35' W 122°21'0 0.0
2014-Oct-24 06:02N 47°35' W 122°21'0 0.0
2014-Oct-24 05:33N 47°35' W 122°21'0 0.0
2014-Oct-24 04:33N 47°35' W 122°21'0 0.0
2014-Oct-24 04:32N 47°35' W 122°21'0 0.0
2014-Oct-24 03:33N 47°35' W 122°21'0 0.0
2014-Oct-24 03:32N 47°35' W 122°21'0 0.0
2014-Oct-24 02:33N 47°35' W 122°21'0 0.3
2014-Oct-24 02:32N 47°35' W 122°21'0 0.0
2014-Oct-24 01:33N 47°35' W 122°21'0 0.0
2014-Oct-24 01:32N 47°35' W 122°21'0 0.0
2014-Oct-24 00:33N 47°35' W 122°21'0 0.0
2014-Oct-24 00:32N 47°35' W 122°21'0 0.0
2014-Oct-23 23:33N 47°35' W 122°21'0 0.0
2014-Oct-23 23:32N 47°35' W 122°21'0 0.0
2014-Oct-23 22:33N 47°35' W 122°21'0 0.0
2014-Oct-23 22:31N 47°35' W 122°21'0 0.0
2014-Oct-23 21:33N 47°35' W 122°21'0 0.0
2014-Oct-23 21:31N 47°35' W 122°21'0 0.0
2014-Oct-23 20:33N 47°35' W 122°21'0 0.0
2014-Oct-23 20:31N 47°35' W 122°21'0 0.0
2014-Oct-23 19:33N 47°35' W 122°21'0 0.2
2014-Oct-23 19:31N 47°35' W 122°21'0 0.0
2014-Oct-23 18:33N 47°35' W 122°21'0 0.0
2014-Oct-23 18:31N 47°35' W 122°21'0 0.0
2014-Oct-23 17:33N 47°35' W 122°21'0 0.0
2014-Oct-23 17:31N 47°35' W 122°21'0 0.0
2014-Oct-23 16:33N 47°35' W 122°21'0 0.0
2014-Oct-23 16:31N 47°35' W 122°21'0 0.0
2014-Oct-23 15:33N 47°35' W 122°21'0 0.0
2014-Oct-23 15:31N 47°35' W 122°21'0 0.0
2014-Oct-23 14:33N 47°35' W 122°21'0 0.0
2014-Oct-23 14:31N 47°35' W 122°21'0 0.0
2014-Oct-23 13:33N 47°35' W 122°21'0 0.0
2014-Oct-23 13:30N 47°35' W 122°21'1 0.6
2014-Oct-23 12:33N 47°35' W 122°21'0 2.3
2014-Oct-23 12:30N 47°35' W 122°21'0 0.5
2014-Oct-23 11:33N 47°35' W 122°21'0 0.0
2014-Oct-23 11:30N 47°35' W 122°21'0 0.0
2014-Oct-23 10:33N 47°35' W 122°21'0 0.1
2014-Oct-23 10:30N 47°35' W 122°21'0 0.0
2014-Oct-23 09:33N 47°35' W 122°21'0 0.0
2014-Oct-23 09:30N 47°35' W 122°21'0 0.0
2014-Oct-23 08:33N 47°35' W 122°21'0 0.1
2014-Oct-23 08:30N 47°35' W 122°21'0 0.0
2014-Oct-23 07:33N 47°35' W 122°21'0 0.0
2014-Oct-23 07:30N 47°35' W 122°21'0 0.0
2014-Oct-23 06:33N 47°35' W 122°21'0 0.1
2014-Oct-23 06:30N 47°35' W 122°21'0 0.0
2014-Oct-23 05:55N 47°35' W 122°21'0 0.0
2014-Oct-23 05:33N 47°35' W 122°21'0 0.0
2014-Oct-23 04:33N 47°35' W 122°21'0 0.0
2014-Oct-23 04:29N 47°35' W 122°21'0 0.0
2014-Oct-23 03:33N 47°35' W 122°21'0 0.1
2014-Oct-23 03:29N 47°35' W 122°21'0 0.0
2014-Oct-23 02:32N 47°35' W 122°21'0 0.0
2014-Oct-23 02:29N 47°35' W 122°21'0 0.0
2014-Oct-23 01:33N 47°35' W 122°21'0 0.1
2014-Oct-23 01:29N 47°35' W 122°21'0 0.1
2014-Oct-23 00:33N 47°35' W 122°21'0 4.0
2014-Oct-23 00:29N 47°36' W 122°21'0 0.3
2014-Oct-22 23:34N 47°35' W 122°21'0 0.1
2014-Oct-22 23:28N 47°35' W 122°21'0 0.2
2014-Oct-22 22:34N 47°35' W 122°21'0 0.0
2014-Oct-22 22:33N 47°35' W 122°21'0 0.0
2014-Oct-22 21:34N 47°35' W 122°21'0 0.0
2014-Oct-22 21:33N 47°35' W 122°21'0 0.0
2014-Oct-22 20:33N 47°35' W 122°21'0 0.0
2014-Oct-22 20:33N 47°35' W 122°21'0 0.0
2014-Oct-22 19:34N 47°35' W 122°21'0 0.0
2014-Oct-22 19:33N 47°35' W 122°21'0 0.0
2014-Oct-22 18:34N 47°35' W 122°21'0 0.0
2014-Oct-22 18:33N 47°35' W 122°21'0 0.0
2014-Oct-22 17:33N 47°35' W 122°21'0 0.0
2014-Oct-22 17:33N 47°35' W 122°21'0 0.0
2014-Oct-22 16:33N 47°35' W 122°21'0 0.0
2014-Oct-22 16:13N 47°35' W 122°21'0 0.0
2014-Oct-22 15:33N 47°35' W 122°21'0 0.7
2014-Oct-22 15:33N 47°35' W 122°21'0 0.0
2014-Oct-22 14:33N 47°35' W 122°21'0 0.0
2014-Oct-22 14:33N 47°35' W 122°21'0 0.4
2014-Oct-22 13:34N 47°36' W 122°21'0 2.0
2014-Oct-22 13:32N 47°36' W 122°21'0 0.5
2014-Oct-22 12:34N 47°35' W 122°21'0 2.1
2014-Oct-22 12:32N 47°35' W 122°21'0 0.3
2014-Oct-22 11:34N 47°36' W 122°21'0 2.9
2014-Oct-22 11:32N 47°35' W 122°21'0 0.3
2014-Oct-22 10:33N 47°35' W 122°21'0 0.0
2014-Oct-22 10:32N 47°35' W 122°21'0 0.0
2014-Oct-22 09:33N 47°35' W 122°21'0 0.0
2014-Oct-22 09:32N 47°35' W 122°21'0 0.0
2014-Oct-22 08:33N 47°35' W 122°21'0 0.0
2014-Oct-22 08:32N 47°35' W 122°21'0 0.0
2014-Oct-22 07:33N 47°35' W 122°21'0 0.3
2014-Oct-22 07:32N 47°35' W 122°21'0 0.0
2014-Oct-22 06:33N 47°35' W 122°21'0 0.0
2014-Oct-22 06:32N 47°35' W 122°21'0 0.0
2014-Oct-22 05:57N 47°35' W 122°21'0 0.0
2014-Oct-22 05:33N 47°35' W 122°21'7 6.8
2014-Oct-22 04:32N 47°41' W 122°26'0 8.3
2014-Oct-22 04:31N 47°42' W 122°26'8 7.8
2014-Oct-22 03:33N 47°49' W 122°24'0 8.3
2014-Oct-22 03:31N 47°49' W 122°24'9 9.0
2014-Oct-22 02:33N 47°57' W 122°19'4 4.0
2014-Oct-22 01:34N 47°59' W 122°13'9 8.6
2014-Oct-22 00:33N 47°52' W 122°22'7 9.9
2014-Oct-21 23:53N 47°46' W 122°25'410.9
2014-Oct-21 23:33N 47°42' W 122°26'011.4
2014-Oct-21 23:33N 47°42' W 122°26'8 7.9
2014-Oct-21 22:33N 47°35' W 122°21'0 0.0
2014-Oct-21 22:32N 47°35' W 122°21'3 3.3
2014-Oct-21 21:33N 47°34' W 122°26'011.0
2014-Oct-21 21:31N 47°34' W 122°26'1010.4
2014-Oct-21 20:33N 47°24' W 122°22'7 8.6
2014-Oct-21 19:46N 47°19' W 122°27'1 5.3
2014-Oct-21 19:33N 47°18' W 122°26'0 0.0
2014-Oct-21 18:33N 47°18' W 122°26'0 0.0
2014-Oct-21 17:32N 47°18' W 122°26'0 0.0
2014-Oct-21 16:33N 47°18' W 122°26'0 0.0
2014-Oct-21 15:33N 47°18' W 122°26'0 0.0
2014-Oct-21 14:33N 47°18' W 122°26'0 0.0
2014-Oct-21 13:33N 47°18' W 122°26'0 0.0
2014-Oct-21 12:33N 47°18' W 122°26'0 0.0
2014-Oct-21 11:31N 47°18' W 122°26'0 0.0
2014-Oct-21 10:33N 47°18' W 122°26'0 0.0
2014-Oct-21 09:33N 47°18' W 122°26'0 0.0
2014-Oct-21 08:31N 47°18' W 122°26'0 0.0
2014-Oct-21 07:33N 47°18' W 122°26'0 0.0
2014-Oct-21 06:33N 47°18' W 122°26'0 0.0
2014-Oct-21 05:33N 47°18' W 122°26'0 0.0
2014-Oct-21 04:28N 47°18' W 122°26'0 0.0
2014-Oct-21 03:31N 47°18' W 122°26'1 1.2
2014-Oct-21 02:33N 47°17' W 122°25'1 1.2
2014-Oct-21 01:33N 47°16' W 122°24'0 0.1
2014-Oct-21 00:33N 47°16' W 122°23'0 0.2
2014-Oct-20 23:33N 47°16' W 122°23'3 2.7
2014-Oct-20 22:33N 47°18' W 122°26'1 0.8
2014-Oct-20 21:33N 47°18' W 122°27'8 8.6
2014-Oct-20 20:39N 47°25' W 122°23'1 9.8
2014-Oct-20 20:33N 47°26' W 122°23'7 9.7
2014-Oct-20 19:49N 47°34' W 122°25'2 8.6
2014-Oct-20 19:33N 47°36' W 122°24'1 9.4
2014-Oct-20 19:29N 47°36' W 122°23'2 1.8
2014-Oct-20 18:33N 47°35' W 122°21'0 0.0
2014-Oct-20 18:29N 47°35' W 122°21'0 0.0
2014-Oct-20 17:33N 47°35' W 122°21'0 0.3
2014-Oct-20 16:33N 47°36' W 122°21'1 0.5
2014-Oct-20 15:33N 47°35' W 122°21'3 2.7
2014-Oct-20 14:33N 47°36' W 122°25'9 8.6
2014-Oct-20 13:33N 47°27' W 122°23'8 8.1
2014-Oct-20 12:33N 47°19' W 122°26'4 4.2
2014-Oct-20 11:30N 47°15' W 122°23'3 2.7
2014-Oct-20 10:33N 47°17' W 122°26'4 3.9
2014-Oct-20 09:33N 47°21' W 122°26'8 8.0
2014-Oct-20 08:33N 47°29' W 122°24'7 6.5
2014-Oct-20 07:29N 47°36' W 122°21'0 0.3
2014-Oct-20 06:43N 47°35' W 122°21'0 0.0
2014-Oct-20 06:31N 47°35' W 122°21'0 0.1
2014-Oct-20 06:28N 47°35' W 122°21'0 0.0
2014-Oct-20 05:58N 47°35' W 122°21'0 0.0
2014-Oct-20 05:33N 47°35' W 122°21'0 0.0
2014-Oct-20 04:33N 47°35' W 122°21'0 0.0
2014-Oct-20 04:33N 47°35' W 122°21'0 0.0
2014-Oct-20 03:33N 47°35' W 122°21'0 0.0
2014-Oct-20 03:33N 47°35' W 122°21'0 0.0
2014-Oct-20 02:33N 47°35' W 122°21'0 0.0
2014-Oct-20 02:33N 47°35' W 122°21'0 0.0
2014-Oct-20 01:33N 47°35' W 122°21'0 0.0
2014-Oct-20 01:33N 47°35' W 122°21'0 0.0
2014-Oct-20 00:33N 47°35' W 122°21'0 0.9
2014-Oct-20 00:33N 47°35' W 122°21'0 0.0
2014-Oct-19 23:33N 47°35' W 122°21'0 0.0
2014-Oct-19 23:33N 47°35' W 122°21'0 0.4
2014-Oct-19 22:33N 47°35' W 122°21'0 0.0
2014-Oct-19 22:33N 47°35' W 122°21'2 1.8
2014-Oct-19 21:33N 47°37' W 122°21'0 0.3
2014-Oct-19 21:32N 47°37' W 122°21'1 1.4
2014-Oct-19 20:33N 47°35' W 122°21'0 0.4
2014-Oct-19 20:33N 47°35' W 122°21'0 0.0
2014-Oct-19 19:33N 47°35' W 122°21'0 0.0
2014-Oct-19 19:30N 47°35' W 122°21'0 0.0
2014-Oct-19 18:33N 47°35' W 122°21'0 0.0
2014-Oct-19 18:29N 47°35' W 122°21'0 0.0
2014-Oct-19 17:27N 47°35' W 122°21'0 0.0
2014-Oct-19 17:18N 47°35' W 122°21'0 0.0
2014-Oct-19 16:32N 47°35' W 122°21'0 0.0
2014-Oct-19 16:31N 47°35' W 122°21'0 0.0
2014-Oct-19 15:33N 47°35' W 122°21'0 0.2
2014-Oct-19 15:31N 47°35' W 122°21'0 0.0
2014-Oct-19 14:33N 47°35' W 122°21'0 0.0
2014-Oct-19 14:31N 47°35' W 122°21'0 0.2
2014-Oct-19 13:33N 47°35' W 122°21'0 0.0
2014-Oct-19 13:31N 47°35' W 122°21'0 0.1
2014-Oct-19 12:33N 47°35' W 122°21'0 1.2
2014-Oct-19 12:31N 47°36' W 122°21'1 1.1
2014-Oct-19 11:33N 47°36' W 122°22'0 0.2
2014-Oct-19 11:31N 47°36' W 122°22'1 1.0
2014-Oct-19 10:33N 47°35' W 122°21'0 0.1
2014-Oct-19 10:31N 47°35' W 122°21'1 0.8
2014-Oct-19 09:33N 47°35' W 122°21'0 0.1
2014-Oct-19 09:31N 47°35' W 122°21'0 0.2
2014-Oct-19 08:33N 47°35' W 122°21'0 0.1
2014-Oct-19 08:31N 47°35' W 122°21'0 0.0
2014-Oct-19 07:33N 47°35' W 122°21'0 0.0
2014-Oct-19 07:31N 47°35' W 122°21'0 0.0
2014-Oct-19 06:33N 47°35' W 122°21'0 0.0
2014-Oct-19 06:30N 47°35' W 122°21'0 0.0
2014-Oct-19 06:00N 47°35' W 122°21'0 0.0
2014-Oct-19 05:33N 47°35' W 122°21'0 0.0
2014-Oct-19 04:33N 47°35' W 122°21'0 0.0
2014-Oct-19 04:25N 47°35' W 122°21'0 0.0
2014-Oct-19 03:33N 47°35' W 122°21'0 0.1
2014-Oct-19 03:30N 47°35' W 122°21'0 0.0
2014-Oct-19 02:33N 47°35' W 122°21'0 0.0
2014-Oct-19 02:24N 47°35' W 122°21'0 0.0
2014-Oct-19 01:33N 47°35' W 122°21'0 0.0
2014-Oct-19 01:30N 47°35' W 122°21'0 0.0
2014-Oct-19 00:33N 47°35' W 122°21'0 0.0
2014-Oct-19 00:24N 47°35' W 122°21'0 0.0
2014-Oct-18 23:33N 47°35' W 122°21'0 0.0
2014-Oct-18 23:30N 47°35' W 122°21'1 1.0
2014-Oct-18 22:33N 47°36' W 122°21'0 0.9
2014-Oct-18 22:30N 47°36' W 122°21'0 0.5
2014-Oct-18 21:33N 47°35' W 122°21'0 0.0
2014-Oct-18 21:29N 47°35' W 122°21'0 0.0
2014-Oct-18 20:33N 47°35' W 122°21'0 0.1
2014-Oct-18 20:29N 47°35' W 122°21'0 0.0
2014-Oct-18 19:33N 47°35' W 122°21'0 0.0
2014-Oct-18 19:29N 47°35' W 122°21'0 0.0
2014-Oct-18 18:33N 47°35' W 122°21'0 0.1
2014-Oct-18 18:28N 47°35' W 122°21'0 0.0
2014-Oct-18 17:33N 47°35' W 122°21'0 0.1
2014-Oct-18 17:28N 47°35' W 122°21'0 0.4
2014-Oct-18 16:33N 47°36' W 122°21'0 1.8
2014-Oct-18 16:28N 47°36' W 122°21'1 0.9
2014-Oct-18 15:33N 47°35' W 122°21'0 0.5
2014-Oct-18 15:29N 47°35' W 122°21'1 0.6
2014-Oct-18 14:33N 47°35' W 122°21'0 0.0
2014-Oct-18 14:29N 47°35' W 122°21'0 0.0
2014-Oct-18 13:33N 47°35' W 122°21'0 0.0
2014-Oct-18 13:33N 47°35' W 122°21'0 0.0
2014-Oct-18 12:33N 47°35' W 122°21'0 0.0
2014-Oct-18 12:33N 47°35' W 122°21'0 0.0
2014-Oct-18 11:33N 47°35' W 122°21'0 0.0
2014-Oct-18 11:33N 47°35' W 122°21'0 0.0
2014-Oct-18 10:33N 47°35' W 122°21'0 0.0
2014-Oct-18 10:23N 47°35' W 122°21'0 0.0
2014-Oct-18 09:33N 47°35' W 122°21'0 0.0
2014-Oct-18 09:33N 47°35' W 122°21'0 0.0
2014-Oct-18 08:33N 47°35' W 122°21'0 0.0
2014-Oct-18 08:32N 47°35' W 122°21'0 0.0
2014-Oct-18 07:33N 47°35' W 122°21'0 0.3
2014-Oct-18 07:32N 47°35' W 122°21'0 0.3
2014-Oct-18 06:33N 47°35' W 122°21'0 2.7
2014-Oct-18 06:31N 47°35' W 122°21'1 2.2
2014-Oct-18 05:57N 47°36' W 122°22'1 1.6
2014-Oct-18 05:33N 47°36' W 122°21'0 0.4
2014-Oct-18 04:33N 47°35' W 122°21'0 0.0
2014-Oct-18 04:32N 47°35' W 122°21'0 0.0
2014-Oct-18 03:33N 47°35' W 122°21'0 0.0
2014-Oct-18 03:32N 47°35' W 122°21'0 0.0
2014-Oct-18 02:33N 47°35' W 122°21'0 0.3
2014-Oct-18 02:32N 47°35' W 122°21'0 0.0
2014-Oct-18 01:33N 47°35' W 122°21'0 0.0
2014-Oct-18 01:32N 47°35' W 122°21'0 0.0
2014-Oct-18 00:33N 47°35' W 122°21'0 0.0
2014-Oct-18 00:32N 47°35' W 122°21'0 0.0
2014-Oct-17 23:33N 47°35' W 122°21'0 0.0
2014-Oct-17 23:32N 47°35' W 122°21'0 0.0
2014-Oct-17 22:33N 47°35' W 122°21'0 0.0
2014-Oct-17 22:32N 47°35' W 122°21'0 0.0
2014-Oct-17 21:33N 47°35' W 122°21'0 0.2
2014-Oct-17 21:31N 47°35' W 122°21'0 0.0
2014-Oct-17 20:33N 47°35' W 122°21'0 0.0
2014-Oct-17 20:31N 47°35' W 122°21'0 0.0
2014-Oct-17 19:33N 47°35' W 122°21'0 0.1
2014-Oct-17 19:31N 47°35' W 122°21'0 0.0
2014-Oct-17 18:33N 47°35' W 122°21'0 0.1
2014-Oct-17 18:31N 47°35' W 122°21'5 5.6
2014-Oct-17 17:33N 47°31' W 122°25'0 8.2
2014-Oct-17 17:31N 47°30' W 122°25'8 8.7
2014-Oct-17 16:33N 47°22' W 122°21'1 8.7
2014-Oct-17 16:25N 47°22' W 122°23'5 6.1
2014-Oct-17 15:33N 47°16' W 122°24'1 0.5
2014-Oct-17 14:34N 47°16' W 122°24'0 0.3
2014-Oct-17 13:33N 47°16' W 122°23'1 1.3
2014-Oct-17 12:33N 47°17' W 122°25'1 1.5
2014-Oct-17 11:33N 47°16' W 122°23'0 0.2
2014-Oct-17 10:33N 47°16' W 122°23'3 3.2
2014-Oct-17 09:33N 47°18' W 122°27'1110.7
2014-Oct-17 08:33N 47°28' W 122°24'7 6.0
2014-Oct-17 07:20N 47°35' W 122°21'0 0.0
2014-Oct-17 07:02N 47°35' W 122°21'0 0.0
2014-Oct-17 06:33N 47°35' W 122°21'0 0.4
2014-Oct-17 06:32N 47°35' W 122°21'0 0.0
2014-Oct-17 05:32N 47°35' W 122°21'0 0.0
2014-Oct-17 04:33N 47°35' W 122°21'0 0.0
2014-Oct-17 04:29N 47°35' W 122°21'0 0.0
2014-Oct-17 03:33N 47°35' W 122°21'0 0.1
2014-Oct-17 03:29N 47°35' W 122°21'0 0.0
2014-Oct-17 02:33N 47°35' W 122°21'0 0.0
2014-Oct-17 02:29N 47°35' W 122°21'0 0.0
2014-Oct-17 01:33N 47°35' W 122°21'0 0.0
2014-Oct-17 01:29N 47°35' W 122°21'0 0.0
2014-Oct-17 00:33N 47°35' W 122°21'0 0.1
2014-Oct-17 00:29N 47°35' W 122°21'0 0.0
2014-Oct-16 23:33N 47°35' W 122°21'0 0.0
2014-Oct-16 23:29N 47°35' W 122°21'0 0.0
2014-Oct-16 22:33N 47°35' W 122°21'0 0.1
2014-Oct-16 22:28N 47°35' W 122°21'0 0.0
2014-Oct-16 21:33N 47°35' W 122°21'0 0.0
2014-Oct-16 21:33N 47°35' W 122°21'0 0.0
2014-Oct-16 20:33N 47°35' W 122°21'0 0.0
2014-Oct-16 20:33N 47°35' W 122°21'0 0.0
2014-Oct-16 19:33N 47°35' W 122°21'0 0.0
2014-Oct-16 19:33N 47°35' W 122°21'0 0.0
2014-Oct-16 18:33N 47°35' W 122°21'0 0.0
2014-Oct-16 18:33N 47°35' W 122°21'0 0.0
2014-Oct-16 17:33N 47°35' W 122°21'0 0.0
2014-Oct-16 17:33N 47°35' W 122°21'0 0.0
2014-Oct-16 16:33N 47°35' W 122°21'0 0.0
2014-Oct-16 16:33N 47°35' W 122°21'0 0.0
2014-Oct-16 15:33N 47°35' W 122°21'0 0.6
2014-Oct-16 15:33N 47°35' W 122°21'0 0.0
2014-Oct-16 14:33N 47°35' W 122°21'0 0.0
2014-Oct-16 14:33N 47°35' W 122°21'0 0.0
2014-Oct-16 13:33N 47°35' W 122°21'0 0.0
2014-Oct-16 13:33N 47°35' W 122°21'0 0.0
2014-Oct-16 12:33N 47°35' W 122°21'0 0.0
2014-Oct-16 12:33N 47°35' W 122°21'1 0.6
2014-Oct-16 11:33N 47°35' W 122°21'0 0.1
2014-Oct-16 11:28N 47°35' W 122°21'0 0.0
2014-Oct-16 10:33N 47°35' W 122°21'0 0.0
2014-Oct-16 10:13N 47°35' W 122°21'0 0.0
2014-Oct-16 09:33N 47°35' W 122°21'0 0.0
2014-Oct-16 09:32N 47°35' W 122°21'0 0.0
2014-Oct-16 08:32N 47°35' W 122°21'0 0.0
2014-Oct-16 08:32N 47°35' W 122°21'0 0.0
2014-Oct-16 07:33N 47°35' W 122°21'0 0.3
2014-Oct-16 07:32N 47°35' W 122°21'0 0.4
2014-Oct-16 06:33N 47°35' W 122°21'0 0.0
2014-Oct-16 06:32N 47°35' W 122°21'2 2.6
2014-Oct-16 05:42N 47°37' W 122°22'0 3.0
2014-Oct-16 05:33N 47°37' W 122°22'2 1.5
2014-Oct-16 04:33N 47°35' W 122°21'0 0.3
2014-Oct-16 04:32N 47°35' W 122°21'0 0.0
2014-Oct-16 03:33N 47°35' W 122°21'0 0.0
2014-Oct-16 03:32N 47°35' W 122°21'0 0.0
2014-Oct-16 02:33N 47°35' W 122°21'0 0.0
2014-Oct-16 02:32N 47°35' W 122°21'0 0.0
2014-Oct-16 01:33N 47°35' W 122°21'0 0.0
2014-Oct-16 01:31N 47°35' W 122°21'0 0.0
2014-Oct-16 00:33N 47°35' W 122°21'0 0.0
2014-Oct-16 00:26N 47°35' W 122°21'1 0.7
2014-Oct-15 23:33N 47°35' W 122°21'0 0.2
2014-Oct-15 23:31N 47°35' W 122°21'1 0.6
2014-Oct-15 22:33N 47°35' W 122°21'0 0.0
2014-Oct-15 22:31N 47°35' W 122°21'0 0.0
2014-Oct-15 21:33N 47°35' W 122°21'0 0.2
2014-Oct-15 21:31N 47°35' W 122°21'0 0.0
2014-Oct-15 20:33N 47°35' W 122°21'0 0.0
2014-Oct-15 20:31N 47°35' W 122°21'  

Dump ship's entire track history